createdAt,value
2019-04-30T03:01:11.587Z,10.70
2019-04-30T03:03:42.652Z,10.70
2019-04-30T03:06:11.896Z,10.60
2019-04-30T03:08:41.415Z,10.70
2019-04-30T03:11:10.667Z,10.60
2019-04-30T03:13:42.525Z,10.60
2019-04-30T03:16:12.547Z,10.60
2019-04-30T03:18:52.275Z,10.60
2019-04-30T03:21:40.474Z,10.60
2019-04-30T03:24:11.083Z,10.60
2019-04-30T03:26:40.676Z,10.60
2019-04-30T03:29:11.312Z,10.60
2019-04-30T03:31:44.223Z,10.60
2019-04-30T03:34:18.056Z,10.60
2019-04-30T03:36:42.942Z,10.60
2019-04-30T03:39:12.219Z,10.50
2019-04-30T03:41:41.799Z,10.50
2019-04-30T03:44:21.493Z,10.50
2019-04-30T03:46:42.340Z,10.50
2019-04-30T03:49:13.335Z,10.50
2019-04-30T03:51:43.114Z,10.50
2019-04-30T03:54:12.618Z,10.50
2019-04-30T03:56:42.766Z,10.50
2019-04-30T03:59:12.103Z,10.50
2019-04-30T04:01:43.019Z,10.50
2019-04-30T04:04:20.210Z,10.50
2019-04-30T04:06:51.401Z,10.50
2019-04-30T04:09:24.757Z,10.50
2019-04-30T04:11:54.032Z,10.50
2019-04-30T04:14:23.307Z,10.50
2019-04-30T04:16:52.599Z,10.40
2019-04-30T04:19:22.100Z,10.40
2019-04-30T04:21:51.378Z,10.50
2019-04-30T04:24:20.702Z,10.50
2019-04-30T04:26:50.498Z,10.50
2019-04-30T04:29:20.011Z,10.60
2019-04-30T04:31:50.121Z,10.60
2019-04-30T04:34:19.970Z,10.60
2019-04-30T04:36:50.707Z,10.50
2019-04-30T04:39:20.542Z,10.50
2019-04-30T04:41:50.580Z,10.50
2019-04-30T04:44:20.530Z,10.50
2019-04-30T04:46:50.528Z,10.50
2019-04-30T04:49:20.858Z,10.60
2019-04-30T04:51:50.413Z,10.50
2019-04-30T04:54:20.390Z,10.60
2019-04-30T04:56:52.868Z,10.70
2019-04-30T04:59:20.735Z,10.70
2019-04-30T05:01:50.082Z,10.70
2019-04-30T05:04:19.935Z,10.80
2019-04-30T05:06:49.986Z,10.80
2019-04-30T05:09:19.613Z,10.80
2019-04-30T05:11:48.942Z,10.90
2019-04-30T05:14:18.975Z,10.90
2019-04-30T05:16:48.813Z,10.90
2019-04-30T05:19:30.746Z,10.90
2019-04-30T05:22:00.998Z,10.90
2019-04-30T05:24:30.271Z,10.80
2019-04-30T05:26:59.546Z,10.80
2019-04-30T05:29:29.066Z,10.80
2019-04-30T05:31:58.574Z,10.80
2019-04-30T05:34:28.809Z,10.90
2019-04-30T05:36:58.466Z,10.90
2019-04-30T05:39:29.095Z,10.90
2019-04-30T05:41:58.980Z,11.00
2019-04-30T05:44:29.873Z,11.00
2019-04-30T05:47:00.160Z,11.00
2019-04-30T05:49:29.502Z,11.00
2019-04-30T05:51:59.369Z,11.10
2019-04-30T05:54:29.255Z,11.10
2019-04-30T05:56:59.579Z,11.20
2019-04-30T05:59:29.096Z,11.20
2019-04-30T06:01:59.392Z,11.30
2019-04-30T06:04:29.460Z,11.40
2019-04-30T06:06:59.792Z,11.30
2019-04-30T06:09:38.603Z,11.30
2019-04-30T06:12:11.478Z,11.40
2019-04-30T06:14:54.026Z,11.40
2019-04-30T06:17:30.758Z,11.40
2019-04-30T06:20:00.052Z,11.40
2019-04-30T06:22:29.570Z,11.40
2019-04-30T06:24:59.500Z,11.50
2019-04-30T06:27:29.234Z,11.50
2019-04-30T06:29:58.749Z,11.60
2019-04-30T06:32:29.550Z,11.60
2019-04-30T06:34:59.401Z,11.60
2019-04-30T06:37:31.516Z,11.60
2019-04-30T06:40:00.303Z,11.70
2019-04-30T06:42:30.018Z,11.80
2019-04-30T06:44:59.524Z,11.90
2019-04-30T06:47:32.984Z,11.90
2019-04-30T06:50:01.400Z,11.90
2019-04-30T06:52:30.775Z,12.00
2019-04-30T06:55:00.058Z,12.10
2019-04-30T06:57:29.546Z,12.10
2019-04-30T06:59:59.589Z,12.10
2019-04-30T07:02:30.798Z,12.20
2019-04-30T07:05:00.335Z,12.20
2019-04-30T07:07:38.500Z,12.20
2019-04-30T07:10:16.105Z,12.20
2019-04-30T07:12:48.966Z,12.30
2019-04-30T07:15:19.650Z,12.40
2019-04-30T07:17:49.329Z,12.50
2019-04-30T07:20:19.134Z,12.60
2019-04-30T07:22:52.481Z,12.60
2019-04-30T07:25:19.652Z,12.60
2019-04-30T07:27:50.504Z,12.60
2019-04-30T07:30:20.000Z,12.60
2019-04-30T07:32:49.275Z,12.70
2019-04-30T07:35:19.552Z,12.70
2019-04-30T07:37:49.762Z,12.70
2019-04-30T07:40:19.250Z,12.80
2019-04-30T07:42:49.385Z,12.80
2019-04-30T07:45:19.597Z,12.90
2019-04-30T07:47:49.570Z,13.00
2019-04-30T07:53:01.912Z,13.00
2019-04-30T07:55:20.883Z,12.90
2019-04-30T07:57:50.708Z,12.90
2019-04-30T08:00:20.146Z,13.00
2019-04-30T08:02:52.169Z,13.10
2019-04-30T08:05:29.907Z,13.20
2019-04-30T08:08:16.109Z,13.30
2019-04-30T08:09:36.921Z,13.10
2019-04-30T08:10:30.302Z,13.40
2019-04-30T08:13:08.536Z,13.20
2019-04-30T08:15:30.538Z,13.20
2019-04-30T08:18:03.599Z,13.30
2019-04-30T08:20:30.786Z,13.30
2019-04-30T08:23:12.991Z,13.40
2019-04-30T08:25:31.264Z,13.50
2019-04-30T08:28:00.535Z,13.60
2019-04-30T08:30:30.160Z,13.60
2019-04-30T08:32:59.738Z,13.60
2019-04-30T08:35:29.653Z,13.60
2019-04-30T08:37:59.140Z,13.50
2019-04-30T08:40:29.717Z,13.50
2019-04-30T08:42:59.573Z,13.70
2019-04-30T08:45:31.088Z,13.90
2019-04-30T08:47:59.865Z,14.10
2019-04-30T08:50:29.886Z,14.10
2019-04-30T08:53:00.372Z,14.20
2019-04-30T08:55:30.407Z,14.20
2019-04-30T08:58:09.276Z,14.30
2019-04-30T09:00:31.258Z,14.40
2019-04-30T09:03:00.699Z,14.40
2019-04-30T09:05:38.622Z,14.40
2019-04-30T09:08:09.686Z,14.40
2019-04-30T09:10:39.389Z,14.50
2019-04-30T09:13:09.130Z,14.50
2019-04-30T09:15:40.101Z,14.40
2019-04-30T09:18:12.376Z,14.50
2019-04-30T09:20:40.990Z,14.60
2019-04-30T09:23:11.289Z,14.70
2019-04-30T09:25:41.654Z,14.70
2019-04-30T09:28:10.926Z,14.80
2019-04-30T09:30:40.419Z,14.90
2019-04-30T09:33:11.182Z,14.90
2019-04-30T09:35:41.515Z,14.90
2019-04-30T09:38:10.790Z,14.90
2019-04-30T09:40:41.733Z,14.80
2019-04-30T09:43:11.171Z,14.90
2019-04-30T09:45:40.430Z,15.00
2019-04-30T09:48:09.935Z,15.10
2019-04-30T09:50:39.555Z,15.10
2019-04-30T09:53:10.066Z,15.20
2019-04-30T09:55:40.549Z,15.30
2019-04-30T09:58:17.185Z,15.50
2019-04-30T10:00:40.882Z,15.50
2019-04-30T10:03:11.058Z,15.40
2019-04-30T10:05:40.807Z,15.60
2019-04-30T10:08:10.066Z,15.70
2019-04-30T10:10:41.042Z,15.90
2019-04-30T10:13:10.311Z,16.00
2019-04-30T10:15:55.811Z,16.00
2019-04-30T10:18:25.070Z,16.00
2019-04-30T10:20:54.407Z,16.00
2019-04-30T10:23:23.694Z,16.20
2019-04-30T10:25:53.263Z,16.30
2019-04-30T10:28:23.193Z,16.20
2019-04-30T10:30:52.446Z,16.20
2019-04-30T10:33:21.718Z,16.30
2019-04-30T10:35:50.987Z,16.30
2019-04-30T10:38:20.274Z,16.30
2019-04-30T10:40:49.538Z,16.20
2019-04-30T10:43:19.790Z,16.40
2019-04-30T10:45:49.206Z,16.40
2019-04-30T10:48:18.470Z,16.50
2019-04-30T10:50:49.212Z,16.60
2019-04-30T10:53:18.527Z,16.70
2019-04-30T10:55:48.558Z,16.70
2019-04-30T10:58:18.009Z,16.80
2019-04-30T11:00:47.300Z,16.90
2019-04-30T11:03:20.816Z,16.90
2019-04-30T11:05:48.800Z,17.00
2019-04-30T11:08:18.115Z,17.10
2019-04-30T11:10:47.387Z,17.30
2019-04-30T11:13:16.719Z,17.40
2019-04-30T11:15:45.991Z,17.40
2019-04-30T11:18:15.371Z,17.60
2019-04-30T11:20:45.190Z,17.70
2019-04-30T11:23:15.715Z,17.80
2019-04-30T11:25:46.048Z,17.80
2019-04-30T11:28:16.332Z,17.90
2019-04-30T11:30:46.001Z,18.20
2019-04-30T11:33:15.710Z,18.40
2019-04-30T11:35:45.089Z,18.30
2019-04-30T11:38:14.354Z,18.30
2019-04-30T11:40:43.695Z,18.20
2019-04-30T11:43:12.959Z,18.30
2019-04-30T11:45:54.083Z,18.50
2019-04-30T11:48:23.579Z,18.60
2019-04-30T11:50:52.915Z,18.90
2019-04-30T11:53:27.659Z,19.00
2019-04-30T11:55:53.150Z,19.00
2019-04-30T11:58:22.427Z,19.00
2019-04-30T12:00:51.763Z,19.10
2019-04-30T12:03:21.026Z,19.20
2019-04-30T12:05:50.298Z,19.50
2019-04-30T12:08:26.391Z,19.70
2019-04-30T12:10:55.694Z,19.80
2019-04-30T12:13:26.055Z,19.80
2019-04-30T12:15:55.918Z,19.80
2019-04-30T12:18:25.460Z,19.90
2019-04-30T12:20:54.731Z,20.10
2019-04-30T12:23:25.026Z,20.10
2019-04-30T12:25:54.523Z,20.20
2019-04-30T12:28:23.815Z,20.20
2019-04-30T12:30:53.079Z,20.40
2019-04-30T12:33:22.407Z,20.60
2019-04-30T12:35:51.678Z,20.70
2019-04-30T12:38:20.935Z,20.80
2019-04-30T12:40:50.206Z,21.00
2019-04-30T12:43:19.507Z,20.90
2019-04-30T12:46:01.879Z,20.90
2019-04-30T12:48:21.370Z,21.00
2019-04-30T12:50:59.033Z,21.10
2019-04-30T12:53:30.015Z,21.10
2019-04-30T12:56:00.915Z,21.40
2019-04-30T12:58:30.262Z,21.50
2019-04-30T13:00:59.516Z,21.70
2019-04-30T13:03:30.817Z,21.80
2019-04-30T13:06:01.181Z,22.00
2019-04-30T13:08:31.338Z,21.90
2019-04-30T13:11:01.570Z,21.90
2019-04-30T13:13:32.408Z,22.10
2019-04-30T13:16:01.899Z,22.40
2019-04-30T13:18:31.163Z,22.50
2019-04-30T13:21:00.483Z,22.40
2019-04-30T13:23:29.991Z,22.50
2019-04-30T13:26:01.064Z,22.70
2019-04-30T13:28:48.095Z,23.00
2019-04-30T13:31:19.358Z,23.20
2019-04-30T13:33:51.451Z,23.20
2019-04-30T13:36:21.316Z,23.10
2019-04-30T13:39:03.867Z,23.00
2019-04-30T13:41:38.119Z,23.10
2019-04-30T13:44:09.695Z,22.90
2019-04-30T13:46:39.653Z,23.10
2019-04-30T13:49:08.921Z,23.40
2019-04-30T13:51:38.190Z,23.60
2019-04-30T13:54:07.452Z,24.10
2019-04-30T13:56:36.714Z,24.50
2019-04-30T13:59:05.984Z,24.70
2019-04-30T14:01:35.239Z,24.80
2019-04-30T14:04:12.202Z,25.00
2019-04-30T14:06:59.230Z,25.40
2019-04-30T14:09:30.101Z,25.60
2019-04-30T14:11:59.363Z,25.50
2019-04-30T14:14:29.618Z,25.50
2019-04-30T14:17:01.227Z,25.80
2019-04-30T14:19:30.165Z,26.60
2019-04-30T14:21:59.723Z,26.80
2019-04-30T14:24:28.991Z,26.70
2019-04-30T14:26:59.100Z,26.50
2019-04-30T14:29:30.180Z,26.80
2019-04-30T14:32:00.731Z,27.40
2019-04-30T14:34:30.003Z,27.70
2019-04-30T14:36:59.503Z,27.70
2019-04-30T14:39:29.265Z,27.70
2019-04-30T14:42:00.166Z,27.50
2019-04-30T14:44:32.128Z,27.60
2019-04-30T14:47:03.765Z,27.70
2019-04-30T14:49:35.225Z,27.40
2019-04-30T14:52:05.131Z,26.60
2019-04-30T14:54:38.518Z,26.50
2019-04-30T14:57:09.564Z,26.90
2019-04-30T14:59:52.542Z,27.10
2019-04-30T15:02:29.655Z,27.20
2019-04-30T15:04:58.993Z,27.20
2019-04-30T15:07:29.586Z,27.20
2019-04-30T15:09:59.183Z,27.40
2019-04-30T15:12:28.450Z,27.00
2019-04-30T15:14:59.212Z,26.40
2019-04-30T15:17:28.563Z,26.40
2019-04-30T15:19:58.775Z,25.80
2019-04-30T15:22:30.747Z,25.80
2019-04-30T15:25:21.435Z,25.80
2019-04-30T15:27:49.693Z,26.00
2019-04-30T15:30:21.676Z,26.20
2019-04-30T15:32:52.267Z,26.00
2019-04-30T15:35:21.536Z,25.70
2019-04-30T15:37:52.458Z,25.50
2019-04-30T15:40:22.119Z,25.20
2019-04-30T15:42:53.103Z,25.20
2019-04-30T15:45:22.367Z,25.00
2019-04-30T15:47:51.633Z,25.10
2019-04-30T15:50:20.919Z,24.80
2019-04-30T15:52:50.199Z,24.80
2019-04-30T15:55:19.449Z,24.50
2019-04-30T15:57:53.406Z,24.40
2019-04-30T16:00:23.231Z,24.40
2019-04-30T16:02:57.424Z,24.40
2019-04-30T16:05:36.483Z,24.40
2019-04-30T16:08:13.988Z,24.40
2019-04-30T16:11:00.585Z,24.40
2019-04-30T16:13:34.562Z,24.50
2019-04-30T16:16:03.898Z,24.50
2019-04-30T16:18:40.522Z,24.40
2019-04-30T16:21:10.025Z,24.30
2019-04-30T16:23:39.519Z,23.90
2019-04-30T16:26:08.794Z,23.40
2019-04-30T16:28:39.046Z,23.20
2019-04-30T16:31:08.711Z,23.00
2019-04-30T16:33:39.360Z,22.80
2019-04-30T16:36:09.052Z,22.60
2019-04-30T16:38:38.742Z,22.40
2019-04-30T16:41:08.880Z,22.20
2019-04-30T16:43:38.827Z,22.20
2019-04-30T16:46:08.170Z,22.10
2019-04-30T16:48:38.857Z,21.90
2019-04-30T16:51:09.139Z,21.90
2019-04-30T16:53:40.214Z,21.60
2019-04-30T16:56:09.598Z,21.40
2019-04-30T16:58:56.454Z,21.20
2019-04-30T17:01:25.803Z,21.00
2019-04-30T17:04:00.743Z,20.80
2019-04-30T17:06:34.333Z,20.70
2019-04-30T17:09:09.235Z,20.70
2019-04-30T17:11:59.471Z,20.60
2019-04-30T17:14:30.756Z,20.40
2019-04-30T17:17:00.046Z,20.20
2019-04-30T17:19:29.537Z,20.10
2019-04-30T17:21:58.817Z,20.00
2019-04-30T17:24:30.112Z,19.90
2019-04-30T17:26:59.309Z,19.60
2019-04-30T17:29:28.689Z,19.60
2019-04-30T17:31:57.946Z,19.60
2019-04-30T17:34:29.142Z,19.50
2019-04-30T17:36:59.152Z,19.50
2019-04-30T17:39:28.534Z,19.40
2019-04-30T17:41:57.830Z,19.30
2019-04-30T17:44:28.939Z,19.20
2019-04-30T17:47:00.120Z,19.20
2019-04-30T17:49:29.439Z,19.10
2019-04-30T17:51:59.676Z,18.90
2019-04-30T17:54:29.003Z,18.90
2019-04-30T17:56:59.246Z,18.80
2019-04-30T17:59:28.520Z,18.70
2019-04-30T18:01:59.655Z,18.60
2019-04-30T18:04:29.737Z,18.60
2019-04-30T18:06:59.318Z,18.50
2019-04-30T18:09:29.232Z,18.40
2019-04-30T18:11:59.512Z,18.30
2019-04-30T18:14:28.935Z,18.30
2019-04-30T18:16:59.427Z,18.20
2019-04-30T18:19:39.311Z,18.20
2019-04-30T18:22:10.447Z,18.10
2019-04-30T18:24:43.991Z,18.10
2019-04-30T18:27:23.720Z,18.00
2019-04-30T18:29:53.059Z,17.90
2019-04-30T18:32:23.962Z,17.80
2019-04-30T18:34:53.235Z,17.70
2019-04-30T18:37:22.607Z,17.50
2019-04-30T18:39:51.915Z,17.50
2019-04-30T18:42:21.183Z,17.40
2019-04-30T18:44:50.520Z,17.30
2019-04-30T18:47:19.799Z,17.30
2019-04-30T18:49:49.573Z,17.20
2019-04-30T18:52:18.988Z,17.10
2019-04-30T18:54:49.530Z,17.00
2019-04-30T18:57:18.874Z,16.90
2019-04-30T18:59:48.135Z,16.90
2019-04-30T19:02:17.846Z,16.80
2019-04-30T19:04:47.347Z,16.70
2019-04-30T19:07:18.314Z,16.60
2019-04-30T19:09:51.928Z,16.60
2019-04-30T19:12:34.860Z,16.60
2019-04-30T19:15:10.350Z,16.50
2019-04-30T19:17:41.243Z,16.40
2019-04-30T19:20:21.282Z,16.30
2019-04-30T19:22:50.550Z,16.20
2019-04-30T19:25:19.891Z,16.10
2019-04-30T19:27:49.405Z,16.10
2019-04-30T19:30:19.385Z,16.00
2019-04-30T19:32:49.143Z,15.90
2019-04-30T19:35:18.829Z,15.90
2019-04-30T19:37:48.767Z,15.90
2019-04-30T19:40:19.010Z,15.80
2019-04-30T19:42:50.862Z,15.80
2019-04-30T19:45:19.470Z,15.70
2019-04-30T19:47:49.060Z,15.70
2019-04-30T19:50:19.277Z,15.60
2019-04-30T19:52:48.609Z,15.60
2019-04-30T19:55:20.449Z,15.50
2019-04-30T19:57:51.096Z,15.40
2019-04-30T20:00:20.019Z,15.30
2019-04-30T20:02:49.287Z,15.30
2019-04-30T20:05:19.396Z,15.30
2019-04-30T20:07:49.800Z,15.20
2019-04-30T20:10:19.539Z,15.20
2019-04-30T20:12:49.768Z,15.10
2019-04-30T20:15:22.181Z,15.10
2019-04-30T20:17:50.448Z,15.10
2019-04-30T20:20:19.758Z,15.00
2019-04-30T20:22:51.880Z,15.00
2019-04-30T20:25:20.475Z,15.00
2019-04-30T20:27:50.027Z,15.00
2019-04-30T20:30:19.609Z,14.90
2019-04-30T20:32:51.189Z,14.70
2019-04-30T20:35:20.124Z,14.50
2019-04-30T20:38:09.327Z,14.40
2019-04-30T20:40:43.762Z,14.40
2019-04-30T20:43:11.687Z,14.40
2019-04-30T20:45:41.226Z,14.30
2019-04-30T20:48:10.504Z,14.30
2019-04-30T20:50:39.803Z,14.20
2019-04-30T20:53:09.076Z,14.10
2019-04-30T20:55:38.806Z,14.00
2019-04-30T20:58:09.653Z,13.90
2019-04-30T21:00:39.066Z,13.90
2019-04-30T21:03:09.731Z,13.80
2019-04-30T21:05:39.206Z,13.70
2019-04-30T21:08:08.632Z,13.70
2019-04-30T21:10:39.489Z,13.70
2019-04-30T21:13:11.003Z,13.70
2019-04-30T21:15:39.929Z,13.70
2019-04-30T21:18:09.535Z,13.70
2019-04-30T21:20:38.921Z,13.70
2019-04-30T21:23:09.393Z,13.60
2019-04-30T21:25:38.835Z,13.50
2019-04-30T21:28:09.714Z,13.40
2019-04-30T21:30:39.086Z,13.30
2019-04-30T21:33:10.235Z,13.20
2019-04-30T21:35:50.763Z,13.10
2019-04-30T21:38:20.159Z,13.00
2019-04-30T21:40:49.663Z,12.90
2019-04-30T21:43:18.954Z,12.80
2019-04-30T21:45:49.385Z,12.80
2019-04-30T21:48:19.134Z,12.90
2019-04-30T21:50:49.751Z,12.90
2019-04-30T21:53:19.562Z,12.90
2019-04-30T21:55:49.676Z,12.90
2019-04-30T21:58:20.483Z,12.90
2019-04-30T22:00:54.883Z,12.90
2019-04-30T22:03:25.651Z,12.80
2019-04-30T22:05:54.926Z,12.80
2019-04-30T22:08:24.202Z,12.70
2019-04-30T22:10:53.470Z,12.60
2019-04-30T22:13:22.751Z,12.60
2019-04-30T22:15:52.022Z,12.50
2019-04-30T22:18:21.525Z,12.30
2019-04-30T22:20:50.798Z,12.00
2019-04-30T22:23:20.067Z,11.90
2019-04-30T22:25:49.347Z,11.70
2019-04-30T22:28:18.667Z,11.70
2019-04-30T22:30:48.384Z,11.70
2019-04-30T22:33:19.448Z,11.70
2019-04-30T22:35:53.314Z,11.60
2019-04-30T22:38:24.223Z,11.50
2019-04-30T22:40:53.494Z,11.50
2019-04-30T22:43:22.763Z,11.50
2019-04-30T22:45:53.682Z,11.50
2019-04-30T22:48:22.946Z,11.50
2019-04-30T22:50:52.240Z,11.40
2019-04-30T22:53:21.503Z,11.40
2019-04-30T22:55:50.778Z,11.40
2019-04-30T22:58:20.054Z,11.40
2019-04-30T23:00:49.790Z,11.40
2019-04-30T23:03:20.706Z,11.40
2019-04-30T23:05:49.975Z,11.40
2019-04-30T23:08:19.246Z,11.40
2019-04-30T23:10:48.531Z,11.30
2019-04-30T23:13:17.887Z,11.30
2019-04-30T23:15:50.002Z,11.20
2019-04-30T23:18:19.284Z,11.20
2019-04-30T23:20:48.557Z,11.30
2019-04-30T23:23:17.827Z,11.20
2019-04-30T23:25:47.142Z,11.20
2019-04-30T23:28:16.418Z,11.00
2019-04-30T23:30:45.691Z,10.80
2019-04-30T23:33:15.939Z,10.80
2019-04-30T23:35:45.223Z,10.80
2019-04-30T23:38:14.490Z,10.80
2019-04-30T23:40:49.260Z,10.80
2019-04-30T23:43:19.562Z,10.70
2019-04-30T23:45:48.979Z,10.60
2019-04-30T23:48:18.251Z,10.50
2019-04-30T23:50:47.526Z,10.50
2019-04-30T23:53:16.810Z,10.50
2019-04-30T23:55:46.303Z,10.50
2019-04-30T23:58:15.574Z,10.40
